Arctic Taglu — CY8968 — position and weather

sailwx.info

Track history (hours):
 
Tides and Currents Weather Stations Pressure Air Temp Water Temp Dewpoint Dewpoint Depression Visibility Wind Speed Wind Dir Waves Ship Positions

Arctic Taglu

Last reported at 2017-Apr-27 13:00 UTC. Time now 2017-Apr-27 13:03 UTC.
Position N 50°06' W 125°18'.

Length 33 m; draft 6 m.

Type: Tug. MMSI: 316003483.

Date/timePositionNaut miles runAvg speedWind from/ knotsBaromVisibWave heightAir tempDewpointWater temp
2017-Apr-27 13:00N 50°06' W 125°18'3 6.2
2017-Apr-27 12:30N 50°03' W 125°15'2 5.0
2017-Apr-27 12:00N 50°01' W 125°13'2 3.7
2017-Apr-27 11:30N 49°59' W 125°12'2 3.8
2017-Apr-27 11:00N 49°58' W 125°10'2 5.0
2017-Apr-27 10:30N 49°56' W 125°07'3 5.1
2017-Apr-27 10:00N 49°55' W 125°04'3 5.9
2017-Apr-27 09:30N 49°53' W 125°01'3 6.1
2017-Apr-27 09:00N 49°51' W 124°57'3 5.8
2017-Apr-27 08:29N 49°49' W 124°54'3 5.8
2017-Apr-27 08:00N 49°47' W 124°51'3 6.2
2017-Apr-27 07:30N 49°45' W 124°47'4 7.1
2017-Apr-27 07:00N 49°43' W 124°43'4 7.6
2017-Apr-27 06:30N 49°41' W 124°38'4 8.0
2017-Apr-27 06:00N 49°38' W 124°33'4 8.0
2017-Apr-27 05:30N 49°36' W 124°28'17 8.1
2017-Apr-27 03:27N 49°28' W 124°05'4 8.2
2017-Apr-27 02:55N 49°26' W 123°59'5 8.4
2017-Apr-27 02:17N 49°25' W 123°51'4 8.6
2017-Apr-27 01:47N 49°24' W 123°45'3 8.8
2017-Apr-27 01:29N 49°23' W 123°41'4 8.6
2017-Apr-27 01:00N 49°22' W 123°35'6 7.9
2017-Apr-27 00:13N 49°24' W 123°25'2 7.8
2017-Apr-27 00:00N 49°25' W 123°27'3 6.5
2017-Apr-26 23:30N 49°28' W 123°29'0 0.6
2017-Apr-26 23:00N 49°28' W 123°29'0 0.1
2017-Apr-26 22:29N 49°28' W 123°29'0 0.0
2017-Apr-26 21:52N 49°28' W 123°29'0 0.0
2017-Apr-26 21:29N 49°28' W 123°29'0 0.1
2017-Apr-26 21:00N 49°28' W 123°29'0 0.1
2017-Apr-26 20:29N 49°28' W 123°29'0 0.1
2017-Apr-26 20:00N 49°28' W 123°29'0 0.0
2017-Apr-26 19:30N 49°28' W 123°29'0 0.1
2017-Apr-26 18:56N 49°28' W 123°29'0 0.0
2017-Apr-26 18:23N 49°28' W 123°29'0 0.0
2017-Apr-26 18:00N 49°28' W 123°29'0 0.0
2017-Apr-26 17:29N 49°28' W 123°29'0 0.0
2017-Apr-26 16:59N 49°28' W 123°29'0 0.0
2017-Apr-26 16:30N 49°28' W 123°29'0 0.1
2017-Apr-26 15:57N 49°28' W 123°29'0 0.0
2017-Apr-26 15:19N 49°28' W 123°29'0 0.0
2017-Apr-26 15:00N 49°28' W 123°29'0 0.0
2017-Apr-26 14:28N 49°28' W 123°29'0 0.0
2017-Apr-26 13:30N 49°28' W 123°29'0 0.0
2017-Apr-26 13:00N 49°28' W 123°29'0 0.0
2017-Apr-26 12:30N 49°28' W 123°29'0 0.0
2017-Apr-26 11:59N 49°28' W 123°29'0 0.1
2017-Apr-26 11:30N 49°28' W 123°29'0 0.0
2017-Apr-26 11:00N 49°28' W 123°29'0 0.0
2017-Apr-26 10:29N 49°28' W 123°29'0 0.0
2017-Apr-26 10:00N 49°28' W 123°29'0 0.0
2017-Apr-26 09:29N 49°28' W 123°29'0 0.0
2017-Apr-26 09:00N 49°28' W 123°29'0 0.0
2017-Apr-26 08:30N 49°28' W 123°29'0 0.0
2017-Apr-26 07:59N 49°28' W 123°29'0 0.0
2017-Apr-26 07:28N 49°28' W 123°29'0 0.0
2017-Apr-26 06:56N 49°28' W 123°29'0 0.0
2017-Apr-26 06:29N 49°28' W 123°29'0 0.0
2017-Apr-26 06:00N 49°28' W 123°29'0 0.0
2017-Apr-26 05:29N 49°28' W 123°29'0 0.0
2017-Apr-26 05:00N 49°28' W 123°29'0 0.0
2017-Apr-26 04:29N 49°28' W 123°29'0 0.0
2017-Apr-26 03:59N 49°28' W 123°29'0 0.0
2017-Apr-26 03:30N 49°28' W 123°29'0 0.0
2017-Apr-26 03:00N 49°28' W 123°29'0 0.0
2017-Apr-26 02:30N 49°28' W 123°29'0 0.0
2017-Apr-26 02:00N 49°28' W 123°29'0 0.0
2017-Apr-26 01:30N 49°28' W 123°29'0 0.0
2017-Apr-26 01:00N 49°28' W 123°29'0 0.0
2017-Apr-26 00:30N 49°28' W 123°29'0 0.0
2017-Apr-26 00:00N 49°28' W 123°29'0 0.0
2017-Apr-25 23:30N 49°28' W 123°29'0 0.0
2017-Apr-25 22:59N 49°28' W 123°29'0 0.0
2017-Apr-25 22:29N 49°28' W 123°29'0 0.0
2017-Apr-25 22:00N 49°28' W 123°29'0 0.0
2017-Apr-25 21:30N 49°28' W 123°29'0 0.0
2017-Apr-25 21:00N 49°28' W 123°29'0 0.0
2017-Apr-25 20:30N 49°28' W 123°29'0 0.0
2017-Apr-25 20:00N 49°28' W 123°29'0 0.1
2017-Apr-25 19:28N 49°28' W 123°29'0 0.0
2017-Apr-25 19:00N 49°28' W 123°29'0 0.1
2017-Apr-25 18:28N 49°28' W 123°29'0 0.0
2017-Apr-25 18:00N 49°28' W 123°29'0 0.0
2017-Apr-25 17:26N 49°28' W 123°29'0 0.0
2017-Apr-25 16:59N 49°28' W 123°29'0 0.0
2017-Apr-25 16:30N 49°28' W 123°29'0 0.0
2017-Apr-25 15:57N 49°28' W 123°29'0 0.0
2017-Apr-25 15:28N 49°28' W 123°29'0 0.0
2017-Apr-25 15:00N 49°28' W 123°29'0 0.0
2017-Apr-25 14:30N 49°28' W 123°29'0 0.0
2017-Apr-25 13:30N 49°28' W 123°29'0 0.0
2017-Apr-25 12:53N 49°28' W 123°29'0 0.0
2017-Apr-25 12:27N 49°28' W 123°29'0 0.0
2017-Apr-25 12:00N 49°28' W 123°29'0 0.0
2017-Apr-25 11:30N 49°28' W 123°29'0 0.0
2017-Apr-25 11:00N 49°28' W 123°29'0 0.0
2017-Apr-25 10:22N 49°28' W 123°29'0 0.0
2017-Apr-25 10:01N 49°28' W 123°29'0 0.0
2017-Apr-25 09:29N 49°28' W 123°29'0 0.0
2017-Apr-25 09:00N 49°28' W 123°29'0 0.0
2017-Apr-25 08:28N 49°28' W 123°29'0 0.0
2017-Apr-25 07:58N 49°28' W 123°29'0 0.0
2017-Apr-25 07:30N 49°28' W 123°29'0 0.0
2017-Apr-25 06:57N 49°28' W 123°29'0 0.0
2017-Apr-25 06:26N 49°28' W 123°29'0 0.0
2017-Apr-25 05:58N 49°28' W 123°29'0 0.0
2017-Apr-25 05:28N 49°28' W 123°29'0 0.0
2017-Apr-25 04:59N 49°28' W 123°29'0 0.0
2017-Apr-25 04:27N 49°28' W 123°29'0 0.0
2017-Apr-25 04:00N 49°28' W 123°29'0 0.0
2017-Apr-25 03:30N 49°28' W 123°29'0 0.0
2017-Apr-25 02:49N 49°28' W 123°29'0 0.0
2017-Apr-25 02:30N 49°28' W 123°29'0 0.0
2017-Apr-25 01:55N 49°28' W 123°29'0 0.0
2017-Apr-25 01:30N 49°28' W 123°29'0 0.0
2017-Apr-25 00:59N 49°28' W 123°29'0 0.0
2017-Apr-25 00:29N 49°28' W 123°29'0 0.0
2017-Apr-24 23:58N 49°28' W 123°29'0 0.0
2017-Apr-24 23:30N 49°28' W 123°29'0 0.0
2017-Apr-24 22:58N 49°28' W 123°29'0 0.0
2017-Apr-24 22:30N 49°28' W 123°29'0 0.0
2017-Apr-24 22:00N 49°28' W 123°29'0 0.0
2017-Apr-24 21:29N 49°28' W 123°29'0 0.0
2017-Apr-24 21:00N 49°28' W 123°29'0 0.0
2017-Apr-24 20:30N 49°28' W 123°29'0 0.0
2017-Apr-24 19:59N 49°28' W 123°29'0 0.0
2017-Apr-24 19:30N 49°28' W 123°29'0 0.0
2017-Apr-24 18:58N 49°28' W 123°29'0 0.0
2017-Apr-24 18:30N 49°28' W 123°29'0 0.0
2017-Apr-24 17:57N 49°28' W 123°29'0 0.0
2017-Apr-24 17:22N 49°28' W 123°29'0 0.0
2017-Apr-24 17:00N 49°28' W 123°29'0 0.0
2017-Apr-24 16:27N 49°28' W 123°29'0 0.0
2017-Apr-24 16:00N 49°28' W 123°29'0 0.0
2017-Apr-24 15:29N 49°28' W 123°29'0 0.0
2017-Apr-24 15:00N 49°28' W 123°29'0 0.4
2017-Apr-24 14:30N 49°28' W 123°29'1 1.4
2017-Apr-24 13:30N 49°27' W 123°28'2 4.6
2017-Apr-24 13:00N 49°25' W 123°27'2 3.8
2017-Apr-24 12:30N 49°23' W 123°26'3 5.3
2017-Apr-24 12:00N 49°22' W 123°30'3 6.0
2017-Apr-24 11:30N 49°22' W 123°35'3 5.9
2017-Apr-24 11:00N 49°23' W 123°39'3 5.6
2017-Apr-24 10:30N 49°24' W 123°43'3 5.4
2017-Apr-24 10:00N 49°24' W 123°47'3 5.3
2017-Apr-24 09:30N 49°25' W 123°51'3 5.5
2017-Apr-24 09:00N 49°26' W 123°55'3 5.7
2017-Apr-24 08:30N 49°27' W 123°59'3 6.0
2017-Apr-24 08:00N 49°28' W 124°04'3 6.1
2017-Apr-24 07:30N 49°29' W 124°08'3 6.0
2017-Apr-24 07:00N 49°31' W 124°12'3 5.9
2017-Apr-24 06:30N 49°32' W 124°16'3 6.5
2017-Apr-24 06:00N 49°33' W 124°20'3 6.4
2017-Apr-24 05:30N 49°35' W 124°25'3 6.4
2017-Apr-24 05:00N 49°37' W 124°29'3 6.2
2017-Apr-24 04:30N 49°39' W 124°33'3 6.1
2017-Apr-24 04:00N 49°40' W 124°36'3 5.8
2017-Apr-24 03:30N 49°42' W 124°40'3 5.9
2017-Apr-24 03:00N 49°44' W 124°44'3 6.0
2017-Apr-24 02:30N 49°45' W 124°48'3 6.1
2017-Apr-24 02:00N 49°47' W 124°51'3 6.4
2017-Apr-24 01:30N 49°49' W 124°55'4 7.0
2017-Apr-24 01:00N 49°52' W 124°59'3 6.8
2017-Apr-24 00:30N 49°54' W 125°03'3 6.2
2017-Apr-24 00:00N 49°56' W 125°07'3 6.6
2017-Apr-23 23:30N 49°58' W 125°10'3 6.2
2017-Apr-23 23:00N 50°01' W 125°13'4 8.0
2017-Apr-23 22:30N 50°05' W 125°16'4 7.7
2017-Apr-23 22:00N 50°07' W 125°20'3 6.9
2017-Apr-23 21:30N 50°10' W 125°22'2 4.2
2017-Apr-23 21:00N 50°12' W 125°22'2 3.7
2017-Apr-23 20:30N 50°14' W 125°23'2 3.4
2017-Apr-23 20:00N 50°16' W 125°24'2 4.1
2017-Apr-23 19:30N 50°18' W 125°25'3 5.5
2017-Apr-23 19:00N 50°20' W 125°27'4 8.0
2017-Apr-23 18:30N 50°21' W 125°33'3 6.8
2017-Apr-23 18:00N 50°23' W 125°38'4 6.5
2017-Apr-23 17:27N 50°22' W 125°43'3 6.9
2017-Apr-23 17:00N 50°23' W 125°48'31 4.9
2017-Apr-23 10:42N 50°30' W 126°35'1 4.9
2017-Apr-23 10:26N 50°31' W 126°37'3 5.2
2017-Apr-23 09:53N 50°32' W 126°41'4 5.1
2017-Apr-23 09:04N 50°36' W 126°43'1 5.7
2017-Apr-23 08:57N 50°36' W 126°44'3 5.4
2017-Apr-23 08:27N 50°38' W 126°47'3 6.0
2017-Apr-23 07:59N 50°40' W 126°50'3 5.9
2017-Apr-23 07:30N 50°42' W 126°54'3 5.9
2017-Apr-23 06:58N 50°44' W 126°58'3 6.2
2017-Apr-23 06:30N 50°45' W 127°01'3 6.8
2017-Apr-23 05:59N 50°47' W 127°06'3 6.5
2017-Apr-23 05:30N 50°49' W 127°10'3 6.5
2017-Apr-23 05:00N 50°51' W 127°14'3 6.7
2017-Apr-23 04:30N 50°53' W 127°19'3 6.9
2017-Apr-23 04:00N 50°54' W 127°23'4 7.2
2017-Apr-23 03:30N 50°57' W 127°28'2 4.8
2017-Apr-23 03:00N 50°58' W 127°31'2 4.6
2017-Apr-23 02:30N 50°59' W 127°34'3 6.5
2017-Apr-23 02:00N 51°02' W 127°37'3 6.4
2017-Apr-23 01:30N 51°04' W 127°41'3 6.2
2017-Apr-23 01:00N 51°06' W 127°45'3 6.6
2017-Apr-23 00:30N 51°08' W 127°49'3 6.7
2017-Apr-23 00:00N 51°11' W 127°51'3 6.6
2017-Apr-22 23:30N 51°14' W 127°53'3 6.4
2017-Apr-22 23:00N 51°17' W 127°55'6 6.5
2017-Apr-22 22:06N 51°22' W 127°58'1 5.6
2017-Apr-22 22:00N 51°23' W 127°59'3 6.1
2017-Apr-22 21:29N 51°25' W 128°03'4 6.6
2017-Apr-22 20:56N 51°27' W 128°08'  
Track history (hours):
 
Tides and Currents Weather Stations Pressure Air Temp Water Temp Dewpoint Dewpoint Depression Visibility Wind Speed Wind Dir Waves Ship Positions

Arctic Taglu

Last reported at 2017-Apr-27 13:00 UTC. Time now 2017-Apr-27 13:03 UTC.
Position N 50°06' W 125°18'.

Length 33 m; draft 6 m.

Type: Tug. MMSI: 316003483.

Date/timePositionNaut miles runAvg speedWind from/ knotsBaromVisibWave heightAir tempDewpointWater temp
2017-Apr-27 13:00N 50°06' W 125°18'3 6.2
2017-Apr-27 12:30N 50°03' W 125°15'2 5.0
2017-Apr-27 12:00N 50°01' W 125°13'2 3.7
2017-Apr-27 11:30N 49°59' W 125°12'2 3.8
2017-Apr-27 11:00N 49°58' W 125°10'2 5.0
2017-Apr-27 10:30N 49°56' W 125°07'3 5.1
2017-Apr-27 10:00N 49°55' W 125°04'3 5.9
2017-Apr-27 09:30N 49°53' W 125°01'3 6.1
2017-Apr-27 09:00N 49°51' W 124°57'3 5.8
2017-Apr-27 08:29N 49°49' W 124°54'3 5.8
2017-Apr-27 08:00N 49°47' W 124°51'3 6.2
2017-Apr-27 07:30N 49°45' W 124°47'4 7.1
2017-Apr-27 07:00N 49°43' W 124°43'4 7.6
2017-Apr-27 06:30N 49°41' W 124°38'4 8.0
2017-Apr-27 06:00N 49°38' W 124°33'4 8.0
2017-Apr-27 05:30N 49°36' W 124°28'17 8.1
2017-Apr-27 03:27N 49°28' W 124°05'4 8.2
2017-Apr-27 02:55N 49°26' W 123°59'5 8.4
2017-Apr-27 02:17N 49°25' W 123°51'4 8.6
2017-Apr-27 01:47N 49°24' W 123°45'3 8.8
2017-Apr-27 01:29N 49°23' W 123°41'4 8.6
2017-Apr-27 01:00N 49°22' W 123°35'6 7.9
2017-Apr-27 00:13N 49°24' W 123°25'2 7.8
2017-Apr-27 00:00N 49°25' W 123°27'3 6.5
2017-Apr-26 23:30N 49°28' W 123°29'0 0.6
2017-Apr-26 23:00N 49°28' W 123°29'0 0.1
2017-Apr-26 22:29N 49°28' W 123°29'0 0.0
2017-Apr-26 21:52N 49°28' W 123°29'0 0.0
2017-Apr-26 21:29N 49°28' W 123°29'0 0.1
2017-Apr-26 21:00N 49°28' W 123°29'0 0.1
2017-Apr-26 20:29N 49°28' W 123°29'0 0.1
2017-Apr-26 20:00N 49°28' W 123°29'0 0.0
2017-Apr-26 19:30N 49°28' W 123°29'0 0.1
2017-Apr-26 18:56N 49°28' W 123°29'0 0.0
2017-Apr-26 18:23N 49°28' W 123°29'0 0.0
2017-Apr-26 18:00N 49°28' W 123°29'0 0.0
2017-Apr-26 17:29N 49°28' W 123°29'0 0.0
2017-Apr-26 16:59N 49°28' W 123°29'0 0.0
2017-Apr-26 16:30N 49°28' W 123°29'0 0.1
2017-Apr-26 15:57N 49°28' W 123°29'0 0.0
2017-Apr-26 15:19N 49°28' W 123°29'0 0.0
2017-Apr-26 15:00N 49°28' W 123°29'0 0.0
2017-Apr-26 14:28N 49°28' W 123°29'0 0.0
2017-Apr-26 13:30N 49°28' W 123°29'0 0.0
2017-Apr-26 13:00N 49°28' W 123°29'0 0.0
2017-Apr-26 12:30N 49°28' W 123°29'0 0.0
2017-Apr-26 11:59N 49°28' W 123°29'0 0.1
2017-Apr-26 11:30N 49°28' W 123°29'0 0.0
2017-Apr-26 11:00N 49°28' W 123°29'0 0.0
2017-Apr-26 10:29N 49°28' W 123°29'0 0.0
2017-Apr-26 10:00N 49°28' W 123°29'0 0.0
2017-Apr-26 09:29N 49°28' W 123°29'0 0.0
2017-Apr-26 09:00N 49°28' W 123°29'0 0.0
2017-Apr-26 08:30N 49°28' W 123°29'0 0.0
2017-Apr-26 07:59N 49°28' W 123°29'0 0.0
2017-Apr-26 07:28N 49°28' W 123°29'0 0.0
2017-Apr-26 06:56N 49°28' W 123°29'0 0.0
2017-Apr-26 06:29N 49°28' W 123°29'0 0.0
2017-Apr-26 06:00N 49°28' W 123°29'0 0.0
2017-Apr-26 05:29N 49°28' W 123°29'0 0.0
2017-Apr-26 05:00N 49°28' W 123°29'0 0.0
2017-Apr-26 04:29N 49°28' W 123°29'0 0.0
2017-Apr-26 03:59N 49°28' W 123°29'0 0.0
2017-Apr-26 03:30N 49°28' W 123°29'0 0.0
2017-Apr-26 03:00N 49°28' W 123°29'0 0.0
2017-Apr-26 02:30N 49°28' W 123°29'0 0.0
2017-Apr-26 02:00N 49°28' W 123°29'0 0.0
2017-Apr-26 01:30N 49°28' W 123°29'0 0.0
2017-Apr-26 01:00N 49°28' W 123°29'0 0.0
2017-Apr-26 00:30N 49°28' W 123°29'0 0.0
2017-Apr-26 00:00N 49°28' W 123°29'0 0.0
2017-Apr-25 23:30N 49°28' W 123°29'0 0.0
2017-Apr-25 22:59N 49°28' W 123°29'0 0.0
2017-Apr-25 22:29N 49°28' W 123°29'0 0.0
2017-Apr-25 22:00N 49°28' W 123°29'0 0.0
2017-Apr-25 21:30N 49°28' W 123°29'0 0.0
2017-Apr-25 21:00N 49°28' W 123°29'0 0.0
2017-Apr-25 20:30N 49°28' W 123°29'0 0.0
2017-Apr-25 20:00N 49°28' W 123°29'0 0.1
2017-Apr-25 19:28N 49°28' W 123°29'0 0.0
2017-Apr-25 19:00N 49°28' W 123°29'0 0.1
2017-Apr-25 18:28N 49°28' W 123°29'0 0.0
2017-Apr-25 18:00N 49°28' W 123°29'0 0.0
2017-Apr-25 17:26N 49°28' W 123°29'0 0.0
2017-Apr-25 16:59N 49°28' W 123°29'0 0.0
2017-Apr-25 16:30N 49°28' W 123°29'0 0.0
2017-Apr-25 15:57N 49°28' W 123°29'0 0.0
2017-Apr-25 15:28N 49°28' W 123°29'0 0.0
2017-Apr-25 15:00N 49°28' W 123°29'0 0.0
2017-Apr-25 14:30N 49°28' W 123°29'0 0.0
2017-Apr-25 13:30N 49°28' W 123°29'0 0.0
2017-Apr-25 12:53N 49°28' W 123°29'0 0.0
2017-Apr-25 12:27N 49°28' W 123°29'0 0.0
2017-Apr-25 12:00N 49°28' W 123°29'0 0.0
2017-Apr-25 11:30N 49°28' W 123°29'0 0.0
2017-Apr-25 11:00N 49°28' W 123°29'0 0.0
2017-Apr-25 10:22N 49°28' W 123°29'0 0.0
2017-Apr-25 10:01N 49°28' W 123°29'0 0.0
2017-Apr-25 09:29N 49°28' W 123°29'0 0.0
2017-Apr-25 09:00N 49°28' W 123°29'0 0.0
2017-Apr-25 08:28N 49°28' W 123°29'0 0.0
2017-Apr-25 07:58N 49°28' W 123°29'0 0.0
2017-Apr-25 07:30N 49°28' W 123°29'0 0.0
2017-Apr-25 06:57N 49°28' W 123°29'0 0.0
2017-Apr-25 06:26N 49°28' W 123°29'0 0.0
2017-Apr-25 05:58N 49°28' W 123°29'0 0.0
2017-Apr-25 05:28N 49°28' W 123°29'0 0.0
2017-Apr-25 04:59N 49°28' W 123°29'0 0.0
2017-Apr-25 04:27N 49°28' W 123°29'0 0.0
2017-Apr-25 04:00N 49°28' W 123°29'0 0.0
2017-Apr-25 03:30N 49°28' W 123°29'0 0.0
2017-Apr-25 02:49N 49°28' W 123°29'0 0.0
2017-Apr-25 02:30N 49°28' W 123°29'0 0.0
2017-Apr-25 01:55N 49°28' W 123°29'0 0.0
2017-Apr-25 01:30N 49°28' W 123°29'0 0.0
2017-Apr-25 00:59N 49°28' W 123°29'0 0.0
2017-Apr-25 00:29N 49°28' W 123°29'0 0.0
2017-Apr-24 23:58N 49°28' W 123°29'0 0.0
2017-Apr-24 23:30N 49°28' W 123°29'0 0.0
2017-Apr-24 22:58N 49°28' W 123°29'0 0.0
2017-Apr-24 22:30N 49°28' W 123°29'0 0.0
2017-Apr-24 22:00N 49°28' W 123°29'0 0.0
2017-Apr-24 21:29N 49°28' W 123°29'0 0.0
2017-Apr-24 21:00N 49°28' W 123°29'0 0.0
2017-Apr-24 20:30N 49°28' W 123°29'0 0.0
2017-Apr-24 19:59N 49°28' W 123°29'0 0.0
2017-Apr-24 19:30N 49°28' W 123°29'0 0.0
2017-Apr-24 18:58N 49°28' W 123°29'0 0.0
2017-Apr-24 18:30N 49°28' W 123°29'0 0.0
2017-Apr-24 17:57N 49°28' W 123°29'0 0.0
2017-Apr-24 17:22N 49°28' W 123°29'0 0.0
2017-Apr-24 17:00N 49°28' W 123°29'0 0.0
2017-Apr-24 16:27N 49°28' W 123°29'0 0.0
2017-Apr-24 16:00N 49°28' W 123°29'0 0.0
2017-Apr-24 15:29N 49°28' W 123°29'0 0.0
2017-Apr-24 15:00N 49°28' W 123°29'0 0.4
2017-Apr-24 14:30N 49°28' W 123°29'1 1.4
2017-Apr-24 13:30N 49°27' W 123°28'2 4.6
2017-Apr-24 13:00N 49°25' W 123°27'2 3.8
2017-Apr-24 12:30N 49°23' W 123°26'3 5.3
2017-Apr-24 12:00N 49°22' W 123°30'3 6.0
2017-Apr-24 11:30N 49°22' W 123°35'3 5.9
2017-Apr-24 11:00N 49°23' W 123°39'3 5.6
2017-Apr-24 10:30N 49°24' W 123°43'3 5.4
2017-Apr-24 10:00N 49°24' W 123°47'3 5.3
2017-Apr-24 09:30N 49°25' W 123°51'3 5.5
2017-Apr-24 09:00N 49°26' W 123°55'3 5.7
2017-Apr-24 08:30N 49°27' W 123°59'3 6.0
2017-Apr-24 08:00N 49°28' W 124°04'3 6.1
2017-Apr-24 07:30N 49°29' W 124°08'3 6.0
2017-Apr-24 07:00N 49°31' W 124°12'3 5.9
2017-Apr-24 06:30N 49°32' W 124°16'3 6.5
2017-Apr-24 06:00N 49°33' W 124°20'3 6.4
2017-Apr-24 05:30N 49°35' W 124°25'3 6.4
2017-Apr-24 05:00N 49°37' W 124°29'3 6.2
2017-Apr-24 04:30N 49°39' W 124°33'3 6.1
2017-Apr-24 04:00N 49°40' W 124°36'3 5.8
2017-Apr-24 03:30N 49°42' W 124°40'3 5.9
2017-Apr-24 03:00N 49°44' W 124°44'3 6.0
2017-Apr-24 02:30N 49°45' W 124°48'3 6.1
2017-Apr-24 02:00N 49°47' W 124°51'3 6.4
2017-Apr-24 01:30N 49°49' W 124°55'4 7.0
2017-Apr-24 01:00N 49°52' W 124°59'3 6.8
2017-Apr-24 00:30N 49°54' W 125°03'3 6.2
2017-Apr-24 00:00N 49°56' W 125°07'3 6.6
2017-Apr-23 23:30N 49°58' W 125°10'3 6.2
2017-Apr-23 23:00N 50°01' W 125°13'4 8.0
2017-Apr-23 22:30N 50°05' W 125°16'4 7.7
2017-Apr-23 22:00N 50°07' W 125°20'3 6.9
2017-Apr-23 21:30N 50°10' W 125°22'2 4.2
2017-Apr-23 21:00N 50°12' W 125°22'2 3.7
2017-Apr-23 20:30N 50°14' W 125°23'2 3.4
2017-Apr-23 20:00N 50°16' W 125°24'2 4.1
2017-Apr-23 19:30N 50°18' W 125°25'3 5.5
2017-Apr-23 19:00N 50°20' W 125°27'4 8.0
2017-Apr-23 18:30N 50°21' W 125°33'3 6.8
2017-Apr-23 18:00N 50°23' W 125°38'4 6.5
2017-Apr-23 17:27N 50°22' W 125°43'3 6.9
2017-Apr-23 17:00N 50°23' W 125°48'31 4.9
2017-Apr-23 10:42N 50°30' W 126°35'1 4.9
2017-Apr-23 10:26N 50°31' W 126°37'3 5.2
2017-Apr-23 09:53N 50°32' W 126°41'4 5.1
2017-Apr-23 09:04N 50°36' W 126°43'1 5.7
2017-Apr-23 08:57N 50°36' W 126°44'3 5.4
2017-Apr-23 08:27N 50°38' W 126°47'3 6.0
2017-Apr-23 07:59N 50°40' W 126°50'3 5.9
2017-Apr-23 07:30N 50°42' W 126°54'3 5.9
2017-Apr-23 06:58N 50°44' W 126°58'3 6.2
2017-Apr-23 06:30N 50°45' W 127°01'3 6.8
2017-Apr-23 05:59N 50°47' W 127°06'3 6.5
2017-Apr-23 05:30N 50°49' W 127°10'3 6.5
2017-Apr-23 05:00N 50°51' W 127°14'3 6.7
2017-Apr-23 04:30N 50°53' W 127°19'3 6.9
2017-Apr-23 04:00N 50°54' W 127°23'4 7.2
2017-Apr-23 03:30N 50°57' W 127°28'2 4.8
2017-Apr-23 03:00N 50°58' W 127°31'2 4.6
2017-Apr-23 02:30N 50°59' W 127°34'3 6.5
2017-Apr-23 02:00N 51°02' W 127°37'3 6.4
2017-Apr-23 01:30N 51°04' W 127°41'3 6.2
2017-Apr-23 01:00N 51°06' W 127°45'3 6.6
2017-Apr-23 00:30N 51°08' W 127°49'3 6.7
2017-Apr-23 00:00N 51°11' W 127°51'3 6.6
2017-Apr-22 23:30N 51°14' W 127°53'3 6.4
2017-Apr-22 23:00N 51°17' W 127°55'6 6.5
2017-Apr-22 22:06N 51°22' W 127°58'1 5.6
2017-Apr-22 22:00N 51°23' W 127°59'3 6.1
2017-Apr-22 21:29N 51°25' W 128°03'4 6.6
2017-Apr-22 20:56N 51°27' W 128°08'  

Dump ship's entire track history